Etusivu
METAR-TAF:

METAR-TAF

Lentoasemat :

Belize City, Belize

Phillip Goldston

Leveyspiiri: 17-32N, Pituuspiiri: 088-18W, korkeus merenpinnasta: 5 m

Tämänhetkinen sää

Tämä raportti tehtiin 1 tunti ja 3 minuuttia sitten, kello 19.00 UTC
Tuuli 7 kn idästä/koillisesta
Lämpötila 29°C
Kosteus 52%
Ilmanpaine 1018 hPa
Näkyvyys 10 km tai enemmän
Muutamia pilviä 2800 ft:n korkeudessa

METAR: MZBZ 231900Z 06007KT 9999 FEW028 29/18 A3008 Q1018 NOSIG

Aika: 14:03 (20:03 UTC)

Sääennuste

Tämä raportti tehtiin 5 tuntia ja 3 minuuttia sitten, kello 15.00 UTC
Ennuste voimassa 23. päivästä klo 18 UTC - 24. päivään klo 18 UTC
Tuuli 8 kn idästä
Näkyvyys 10 km tai enemmän
Hajanaisia pilviä 2300 ft:n korkeudessa

TAF: MZBZ 231500Z 2318/2418 08008KT 9999 SCT023

Säähavainnot ja -ennusteet yli 4000 lentoasemalta (METAR- ja TAF-raportit).

Käytössä olevat sääasemat on merkitty karttaan keltaisilla ja punaisilla pisteillä.

Aseta hiiri pisteen päälle nähdäksesi sääaseman nimen.

Klikkaa sitten nähdäksesi säähavainnot ja -ennusteet.

Kartan vaihtaminen: klikkaa mustalla rastilla varustettuja vihreitä pisteitä, niin voit zoomata sisään; viivalla varustettua vihreää pistettä, niin voit zoomata ulos tai vihreitä nuolia, niin pääset viereisille kartoille.


METAR-TAF: